Time;durP1;ratioP1;P1;durP2;ratioP2;P2;SDS_P1;SDS_P2;PMS_P1;PMS_P2;Temp;Humidity;BMP_temperature;BMP_pressure;BME280_temperature;BME280_humidity;BME280_pressure;Samples;Min_cycle;Max_cycle;Signal;HPM_P1;HPM_P2
2023/09/13 00:02:18;;;;;;;;;7.00;7.00;;;;;;;;5068405;28;8805;-80
2023/09/13 00:04:45;;;;;;;;;8.60;8.60;;;;;;;;5051291;28;8966;-81
2023/09/13 00:07:14;;;;;;;;;10.00;9.00;;;;;;;;5054086;28;8898;-80
2023/09/13 00:09:41;;;;;;;;;7.40;7.40;;;;;;;;5066595;28;8970;-83
2023/09/13 00:12:08;;;;;;;;;10.40;10.40;;;;;;;;5068562;28;9777;-80
2023/09/13 00:14:36;;;;;;;;;6.80;6.80;;;;;;;;5068596;28;8848;-81
2023/09/13 00:17:03;;;;;;;;;10.80;9.40;;;;;;;;5068513;28;8864;-81
2023/09/13 00:19:30;;;;;;;;;9.00;9.00;;;;;;;;5067346;28;8874;-81
2023/09/13 00:21:58;;;;;;;;;6.00;6.00;;;;;;;;5068929;28;8865;-80
2023/09/13 00:24:27;;;;;;;;;5.60;5.60;;;;;;;;5067844;28;8866;-80
2023/09/13 00:26:54;;;;;;;;;7.80;7.00;;;;;;;;5066583;28;8866;-80
2023/09/13 00:29:23;;;;;;;;;9.20;8.20;;;;;;;;5068486;28;8832;-80
2023/09/13 00:31:51;;;;;;;;;8.20;8.00;;;;;;;;5067832;28;8928;-80
2023/09/13 00:34:18;;;;;;;;;8.80;7.40;;;;;;;;5068647;28;8950;-80
2023/09/13 00:36:45;;;;;;;;;5.00;5.00;;;;;;;;5068847;28;8853;-81
2023/09/13 00:39:12;;;;;;;;;8.20;7.20;;;;;;;;5068399;28;8868;-81
2023/09/13 00:41:41;;;;;;;;;7.20;6.80;;;;;;;;5068384;28;8975;-80
2023/09/13 00:44:08;;;;;;;;;7.40;7.40;;;;;;;;5068007;28;8856;-80
2023/09/13 00:46:35;;;;;;;;;7.80;6.40;;;;;;;;5068469;28;8863;-79
2023/09/13 00:49:06;;;;;;;;;7.40;7.40;;;;;;;;5068406;28;8890;-81
2023/09/13 00:51:33;;;;;;;;;4.00;2.60;;;;;;;;5069959;28;9661;-81
2023/09/13 00:54:04;;;;;;;;;4.40;4.00;;;;;;;;5070947;28;8833;-81
2023/09/13 00:56:32;;;;;;;;;6.00;6.00;;;;;;;;5073570;28;8866;-82
2023/09/13 00:59:02;;;;;;;;;10.00;8.00;;;;;;;;5073668;28;8823;-81
2023/09/13 01:01:29;;;;;;;;;5.60;5.60;;;;;;;;5072616;28;8801;-81
2023/09/13 01:03:57;;;;;;;;;8.40;6.80;;;;;;;;5074003;28;8860;-82
2023/09/13 01:06:24;;;;;;;;;9.40;8.40;;;;;;;;5071144;28;8872;-81
2023/09/13 01:08:51;;;;;;;;;9.80;8.40;;;;;;;;5068029;28;8886;-82
2023/09/13 01:11:19;;;;;;;;;7.00;5.60;;;;;;;;5067850;28;8870;-82
2023/09/13 01:13:46;;;;;;;;;8.40;7.60;;;;;;;;5068111;28;9619;-81
2023/09/13 01:16:22;;;;;;;;;8.20;6.80;;;;;;;;5068035;28;8856;-80
2023/09/13 01:18:55;;;;;;;;;8.75;6.00;;;;;;;;5067933;28;8864;-79
2023/09/13 01:21:36;;;;;;;;;7.40;5.40;;;;;;;;5068754;28;8879;-81
2023/09/13 01:24:19;;;;;;;;;8.25;7.25;;;;;;;;5069353;28;8836;-80
2023/09/13 01:27:06;;;;;;;;;7.60;7.60;;;;;;;;5071229;28;8880;-80
2023/09/13 01:29:36;;;;;;;;;6.20;6.20;;;;;;;;5057793;28;9715;-81
2023/09/13 01:32:03;;;;;;;;;7.40;7.40;;;;;;;;5071729;28;8879;-80
2023/09/13 01:34:31;;;;;;;;;6.50;5.25;;;;;;;;5073408;28;8848;-82
2023/09/13 01:36:58;;;;;;;;;6.00;6.00;;;;;;;;5074200;28;8867;-80
2023/09/13 01:39:26;;;;;;;;;5.80;5.80;;;;;;;;5073131;28;8983;-80
2023/09/13 01:41:57;;;;;;;;;7.00;7.00;;;;;;;;5071413;28;9010;-80
2023/09/13 01:44:25;;;;;;;;;4.60;4.40;;;;;;;;5071703;28;8868;-80
2023/09/13 01:46:54;;;;;;;;;4.60;4.60;;;;;;;;5071457;28;9018;-79
2023/09/13 01:49:22;;;;;;;;;6.25;6.25;;;;;;;;5072832;28;8882;-82
2023/09/13 01:51:49;;;;;;;;;6.75;6.75;;;;;;;;5075283;28;8848;-81
2023/09/13 01:54:21;;;;;;;;;6.75;5.75;;;;;;;;5072252;28;8853;-81
2023/09/13 01:56:48;;;;;;;;;6.00;6.00;;;;;;;;5071230;28;8852;-81
2023/09/13 01:59:15;;;;;;;;;8.25;7.00;;;;;;;;5071569;28;8866;-82
2023/09/13 02:01:43;;;;;;;;;8.75;7.50;;;;;;;;5070518;28;8805;-81
2023/09/13 02:04:12;;;;;;;;;8.00;6.25;;;;;;;;5071344;28;9262;-82
2023/09/13 02:06:39;;;;;;;;;6.00;4.25;;;;;;;;5070388;28;8840;-82
2023/09/13 02:09:06;;;;;;;;;8.50;6.75;;;;;;;;5070135;28;8848;-80
2023/09/13 02:11:34;;;;;;;;;6.00;5.50;;;;;;;;5071462;28;8844;-81
2023/09/13 02:14:01;;;;;;;;;7.25;6.75;;;;;;;;5071623;28;8862;-81
2023/09/13 02:16:28;;;;;;;;;6.00;6.00;;;;;;;;5071369;28;8929;-81
2023/09/13 02:18:55;;;;;;;;;6.00;6.00;;;;;;;;5070693;28;8894;-82
2023/09/13 02:21:24;;;;;;;;;7.50;6.25;;;;;;;;5059144;28;8868;-81
2023/09/13 02:23:57;;;;;;;;;4.25;4.25;;;;;;;;5070853;28;8984;-81
2023/09/13 02:26:26;;;;;;;;;5.75;5.75;;;;;;;;5071836;28;8844;-81
2023/09/13 02:28:53;;;;;;;;;6.00;6.00;;;;;;;;5072223;28;9000;-81
2023/09/13 02:31:24;;;;;;;;;4.00;4.00;;;;;;;;5073780;28;8935;-81
2023/09/13 02:34:26;;;;;;;;;;;;;;;;;;;;;
2023/09/13 02:36:55;;;;;;;;;7.50;6.00;;;;;;;;5076933;28;8815;-79
2023/09/13 02:39:33;;;;;;;;;4.00;4.00;;;;;;;;5076202;28;8863;-80
2023/09/13 02:42:08;;;;;;;;;6.00;5.00;;;;;;;;5076189;28;8836;-79
2023/09/13 02:44:36;;;;;;;;;6.50;6.50;;;;;;;;5070095;28;8877;-81
2023/09/13 02:47:03;;;;;;;;;5.75;5.75;;;;;;;;5068495;28;8849;-81
2023/09/13 02:49:32;;;;;;;;;5.00;5.00;;;;;;;;5070649;28;9006;-81
2023/09/13 02:52:01;;;;;;;;;5.75;5.75;;;;;;;;5070379;28;8860;-81
2023/09/13 02:54:53;;;;;;;;;5.00;5.00;;;;;;;;5070038;28;8975;-80
2023/09/13 02:57:26;;;;;;;;;7.75;7.00;;;;;;;;5059127;28;8876;-80
2023/09/13 02:59:53;;;;;;;;;7.00;5.00;;;;;;;;5069867;28;8844;-81
2023/09/13 03:02:23;;;;;;;;;4.25;4.25;;;;;;;;5069735;28;8834;-81
2023/09/13 03:04:51;;;;;;;;;5.00;5.00;;;;;;;;5070212;28;8941;-80
2023/09/13 03:07:21;;;;;;;;;5.75;5.75;;;;;;;;5070541;28;8856;-84
2023/09/13 03:09:54;;;;;;;;;7.00;5.25;;;;;;;;5070349;28;8859;-81
2023/09/13 03:12:29;;;;;;;;;6.25;6.25;;;;;;;;5072127;28;8954;-80
2023/09/13 03:15:16;;;;;;;;;5.00;5.00;;;;;;;;5071227;28;8868;-83
2023/09/13 03:17:43;;;;;;;;;5.00;4.75;;;;;;;;5067288;28;8855;-80
2023/09/13 03:20:12;;;;;;;;;4.75;4.75;;;;;;;;5069625;28;9584;-81
2023/09/13 03:22:40;;;;;;;;;5.00;5.00;;;;;;;;5069783;28;8883;-80
2023/09/13 03:25:08;;;;;;;;;5.25;5.25;;;;;;;;5070260;28;8959;-80
2023/09/13 03:27:35;;;;;;;;;6.25;5.00;;;;;;;;5069323;28;8852;-81
2023/09/13 03:30:03;;;;;;;;;6.00;6.00;;;;;;;;5067033;28;8927;-81
2023/09/13 03:32:30;;;;;;;;;5.75;5.75;;;;;;;;5048609;28;8795;-80
2023/09/13 03:34:57;;;;;;;;;7.00;7.00;;;;;;;;5055341;28;8851;-81
2023/09/13 03:37:24;;;;;;;;;5.50;4.50;;;;;;;;5050694;28;8843;-81
2023/09/13 03:39:53;;;;;;;;;5.75;5.75;;;;;;;;5049571;28;8885;-80
2023/09/13 03:42:23;;;;;;;;;4.75;4.25;;;;;;;;5049604;28;8842;-80
2023/09/13 03:44:50;;;;;;;;;6.50;6.50;;;;;;;;5049581;28;9004;-80
2023/09/13 03:47:17;;;;;;;;;5.25;5.25;;;;;;;;5047784;28;8850;-80
2023/09/13 03:49:45;;;;;;;;;7.75;6.25;;;;;;;;5048739;28;8856;-80
2023/09/13 03:52:12;;;;;;;;;5.75;5.75;;;;;;;;5048650;28;8913;-81
2023/09/13 03:54:40;;;;;;;;;6.75;6.75;;;;;;;;5046876;28;8858;-80
2023/09/13 03:57:09;;;;;;;;;6.50;6.50;;;;;;;;5048947;28;8919;-80
2023/09/13 03:59:36;;;;;;;;;7.75;6.50;;;;;;;;5048370;28;9692;-79
2023/09/13 04:02:06;;;;;;;;;6.00;6.00;;;;;;;;5069703;28;8904;-82
2023/09/13 04:04:33;;;;;;;;;8.00;8.00;;;;;;;;5072942;28;8857;-82
2023/09/13 04:07:01;;;;;;;;;8.00;8.00;;;;;;;;5070256;28;8856;-83
2023/09/13 04:09:30;;;;;;;;;11.75;7.25;;;;;;;;5071962;28;8858;-83
2023/09/13 04:11:58;;;;;;;;;9.75;9.00;;;;;;;;5074866;28;8896;-82
2023/09/13 04:14:26;;;;;;;;;9.75;9.25;;;;;;;;5073768;28;8860;-84
2023/09/13 04:16:53;;;;;;;;;12.00;9.75;;;;;;;;5074345;28;9015;-81
2023/09/13 04:19:21;;;;;;;;;12.00;10.25;;;;;;;;5073837;28;8848;-82
2023/09/13 04:21:48;;;;;;;;;10.75;10.75;;;;;;;;5071947;28;8903;-82
2023/09/13 04:24:18;;;;;;;;;13.25;13.00;;;;;;;;5067540;28;9824;-82
2023/09/13 04:26:45;;;;;;;;;11.75;10.25;;;;;;;;5068070;28;9758;-82
2023/09/13 04:29:12;;;;;;;;;11.00;11.00;;;;;;;;5067306;28;9451;-82
2023/09/13 04:31:41;;;;;;;;;13.00;11.75;;;;;;;;5066901;28;9587;-82
2023/09/13 04:34:08;;;;;;;;;11.75;11.75;;;;;;;;5067456;28;8859;-81
2023/09/13 04:36:36;;;;;;;;;20.25;20.25;;;;;;;;5067508;28;8835;-82
2023/09/13 04:39:03;;;;;;;;;28.50;24.50;;;;;;;;5067842;28;8986;-81
2023/09/13 04:41:30;;;;;;;;;17.75;17.75;;;;;;;;5067618;28;8856;-82
2023/09/13 04:43:58;;;;;;;;;24.50;23.50;;;;;;;;5067473;28;8868;-82
2023/09/13 04:46:25;;;;;;;;;19.75;16.00;;;;;;;;5067634;28;8914;-81
2023/09/13 04:48:53;;;;;;;;;20.50;14.75;;;;;;;;5069309;28;8848;-82
2023/09/13 04:51:21;;;;;;;;;16.25;16.25;;;;;;;;5069347;28;9635;-82
2023/09/13 04:53:48;;;;;;;;;13.75;13.75;;;;;;;;5069055;28;8864;-81
2023/09/13 04:56:16;;;;;;;;;11.25;11.25;;;;;;;;5067866;28;8865;-82
2023/09/13 04:58:43;;;;;;;;;12.00;11.00;;;;;;;;5067703;28;8972;-81
2023/09/13 05:01:10;;;;;;;;;8.50;8.50;;;;;;;;5067208;28;8769;-81
2023/09/13 05:03:37;;;;;;;;;10.00;10.00;;;;;;;;5067348;28;8856;-82
2023/09/13 05:06:06;;;;;;;;;12.50;12.50;;;;;;;;5066607;28;8856;-81
2023/09/13 05:08:33;;;;;;;;;7.25;5.75;;;;;;;;5067446;28;8845;-82
2023/09/13 05:11:00;;;;;;;;;14.00;12.75;;;;;;;;5067255;28;8859;-82
2023/09/13 05:13:27;;;;;;;;;11.50;11.50;;;;;;;;5066776;28;8849;-70
2023/09/13 05:15:55;;;;;;;;;11.00;11.00;;;;;;;;5066731;28;8844;-69
2023/09/13 05:18:22;;;;;;;;;10.00;10.00;;;;;;;;5067414;28;8875;-70
2023/09/13 05:20:49;;;;;;;;;11.00;9.50;;;;;;;;5067043;28;8861;-70
2023/09/13 05:23:17;;;;;;;;;11.00;11.00;;;;;;;;5066751;28;8890;-72
2023/09/13 05:25:45;;;;;;;;;10.50;9.25;;;;;;;;5066294;28;8860;-71
2023/09/13 05:28:13;;;;;;;;;14.25;12.50;;;;;;;;5067253;28;8875;-71
2023/09/13 05:30:42;;;;;;;;;9.00;9.00;;;;;;;;5066030;28;8801;-70
2023/09/13 05:33:09;;;;;;;;;12.25;12.00;;;;;;;;5067292;28;8868;-71
2023/09/13 05:35:36;;;;;;;;;11.25;11.25;;;;;;;;5066220;28;9674;-71
2023/09/13 05:38:03;;;;;;;;;12.00;12.00;;;;;;;;5066909;28;8871;-70
2023/09/13 05:40:32;;;;;;;;;13.00;13.00;;;;;;;;5066665;28;8887;-71
2023/09/13 05:42:59;;;;;;;;;13.50;12.00;;;;;;;;5067096;28;8869;-70
2023/09/13 05:45:27;;;;;;;;;13.00;11.75;;;;;;;;5067724;28;8817;-70
2023/09/13 05:47:55;;;;;;;;;12.00;9.25;;;;;;;;5070227;28;8833;-71
2023/09/13 05:50:22;;;;;;;;;14.00;12.50;;;;;;;;5069793;28;8864;-70
2023/09/13 05:52:49;;;;;;;;;13.25;11.00;;;;;;;;5069866;28;8974;-71
2023/09/13 05:55:18;;;;;;;;;10.75;10.75;;;;;;;;5069694;28;8870;-70
2023/09/13 05:57:47;;;;;;;;;10.50;10.50;;;;;;;;5068359;28;8891;-69
2023/09/13 06:00:17;;;;;;;;;14.00;14.00;;;;;;;;5063885;28;8891;-71
2023/09/13 06:02:44;;;;;;;;;13.75;11.75;;;;;;;;5066690;28;9961;-74
2023/09/13 06:05:13;;;;;;;;;6.00;6.00;;;;;;;;5066730;28;8836;-71
2023/09/13 06:07:40;;;;;;;;;14.00;13.25;;;;;;;;5066279;28;8880;-74
2023/09/13 06:10:10;;;;;;;;;18.00;14.75;;;;;;;;5066531;28;8864;-71
2023/09/13 06:12:38;;;;;;;;;11.25;11.25;;;;;;;;5077182;28;8852;-71
2023/09/13 06:15:08;;;;;;;;;15.00;12.50;;;;;;;;5066441;28;8832;-72
2023/09/13 06:17:38;;;;;;;;;15.25;12.50;;;;;;;;5067493;28;8827;-75
2023/09/13 06:20:08;;;;;;;;;12.50;12.50;;;;;;;;5070182;28;8858;-72
2023/09/13 06:22:42;;;;;;;;;11.50;10.75;;;;;;;;5068841;28;8840;-72
2023/09/13 06:25:14;;;;;;;;;13.00;11.00;;;;;;;;5069947;28;8876;-72
2023/09/13 06:27:43;;;;;;;;;11.50;10.00;;;;;;;;5069223;28;8844;-74
2023/09/13 06:30:16;;;;;;;;;10.25;10.25;;;;;;;;5068985;28;8820;-72
2023/09/13 06:32:43;;;;;;;;;12.75;12.75;;;;;;;;5069724;28;8868;-72
2023/09/13 06:35:11;;;;;;;;;11.00;11.00;;;;;;;;5069035;28;8852;-72
2023/09/13 06:37:39;;;;;;;;;11.75;11.25;;;;;;;;5069436;28;9622;-72
2023/09/13 06:40:21;;;;;;;;;8.25;8.25;;;;;;;;5069481;28;8938;-71
2023/09/13 06:42:52;;;;;;;;;11.50;10.50;;;;;;;;5059506;28;8990;-72
2023/09/13 06:46:00;;;;;;;;;12.75;12.75;;;;;;;;5069476;28;8864;-83
2023/09/13 06:48:27;;;;;;;;;10.25;10.25;;;;;;;;5069159;28;8924;-71
2023/09/13 06:50:55;;;;;;;;;8.50;8.50;;;;;;;;5070037;28;8860;-71
2023/09/13 06:53:22;;;;;;;;;10.80;10.20;;;;;;;;5069160;28;8953;-73
2023/09/13 06:55:51;;;;;;;;;10.75;10.75;;;;;;;;5069378;28;8852;-71
2023/09/13 06:58:18;;;;;;;;;8.20;8.20;;;;;;;;5067779;28;9032;-71
2023/09/13 07:00:45;;;;;;;;;13.25;11.75;;;;;;;;5068876;28;8791;-71
2023/09/13 07:03:14;;;;;;;;;10.00;10.00;;;;;;;;5068562;28;8852;-71
2023/09/13 07:05:42;;;;;;;;;20.25;19.75;;;;;;;;5069078;28;8848;-72
2023/09/13 07:08:09;;;;;;;;;22.00;20.75;;;;;;;;5068974;28;8840;-71
2023/09/13 07:10:37;;;;;;;;;27.25;26.00;;;;;;;;5069139;28;8864;-71
2023/09/13 07:13:05;;;;;;;;;24.75;24.75;;;;;;;;5068960;28;8870;-73
2023/09/13 07:15:32;;;;;;;;;22.00;20.75;;;;;;;;5068725;28;8840;-72
2023/09/13 07:17:59;;;;;;;;;23.25;18.25;;;;;;;;5069389;28;8837;-72
2023/09/13 07:20:28;;;;;;;;;23.00;21.50;;;;;;;;5071026;28;8861;-72
2023/09/13 07:22:55;;;;;;;;;22.75;21.25;;;;;;;;5071805;28;8875;-71
2023/09/13 07:25:22;;;;;;;;;21.75;19.75;;;;;;;;5071522;28;8880;-71
2023/09/13 07:27:49;;;;;;;;;17.50;15.75;;;;;;;;5071110;28;8832;-72
2023/09/13 07:30:18;;;;;;;;;18.00;17.00;;;;;;;;5072220;28;9529;-73
2023/09/13 07:32:48;;;;;;;;;19.75;18.00;;;;;;;;5070215;28;8853;-72
2023/09/13 07:35:20;;;;;;;;;18.00;17.25;;;;;;;;5068043;28;8851;-71
2023/09/13 07:37:48;;;;;;;;;15.75;15.75;;;;;;;;5068947;28;9541;-71
2023/09/13 07:40:16;;;;;;;;;12.50;12.50;;;;;;;;5068564;28;8862;-73
2023/09/13 07:42:43;;;;;;;;;13.75;12.00;;;;;;;;5067559;28;8860;-71
2023/09/13 07:45:10;;;;;;;;;10.25;10.25;;;;;;;;5068646;28;8864;-72
2023/09/13 07:47:38;;;;;;;;;11.75;8.75;;;;;;;;5068291;28;8868;-72
2023/09/13 07:50:05;;;;;;;;;8.20;8.20;;;;;;;;5068056;28;8859;-71
2023/09/13 07:52:33;;;;;;;;;8.60;8.00;;;;;;;;5068127;28;8874;-71
2023/09/13 07:55:01;;;;;;;;;10.40;10.40;;;;;;;;5068309;28;8840;-73
2023/09/13 07:57:28;;;;;;;;;16.00;16.00;;;;;;;;5067622;28;8868;-72
2023/09/13 07:59:55;;;;;;;;;13.50;13.50;;;;;;;;5067800;28;8891;-72
2023/09/13 08:02:23;;;;;;;;;8.50;7.00;;;;;;;;5068464;28;8808;-72
2023/09/13 08:04:50;;;;;;;;;8.80;8.80;;;;;;;;5067636;28;8844;-72
2023/09/13 08:07:17;;;;;;;;;10.80;9.60;;;;;;;;5067496;28;8864;-72
2023/09/13 08:09:44;;;;;;;;;7.40;7.40;;;;;;;;5067893;28;8882;-71
2023/09/13 08:12:13;;;;;;;;;9.00;7.20;;;;;;;;5067840;28;8864;-74
2023/09/13 08:14:40;;;;;;;;;8.60;8.60;;;;;;;;5067605;28;8849;-74
2023/09/13 08:17:07;;;;;;;;;12.60;8.20;;;;;;;;5067800;28;8878;-72
2023/09/13 08:19:34;;;;;;;;;10.80;9.00;;;;;;;;5067285;28;8848;-72
2023/09/13 08:22:02;;;;;;;;;8.60;8.60;;;;;;;;5067678;28;8872;-74
2023/09/13 08:24:29;;;;;;;;;5.80;5.80;;;;;;;;5066995;28;8862;-74
2023/09/13 08:26:56;;;;;;;;;7.80;6.00;;;;;;;;5067828;28;8879;-72
2023/09/13 08:29:25;;;;;;;;;8.20;7.00;;;;;;;;5067677;28;8929;-72
2023/09/13 08:31:52;;;;;;;;;9.00;7.60;;;;;;;;5066851;28;8824;-72
2023/09/13 08:34:19;;;;;;;;;5.40;5.40;;;;;;;;5059995;28;8906;-72
2023/09/13 08:36:46;;;;;;;;;5.20;5.00;;;;;;;;5067232;28;8868;-71
2023/09/13 08:39:13;;;;;;;;;5.60;5.60;;;;;;;;5067410;28;8859;-73
2023/09/13 08:41:43;;;;;;;;;8.40;7.00;;;;;;;;5067192;28;8840;-70
2023/09/13 08:44:11;;;;;;;;;6.60;6.60;;;;;;;;5067533;28;8962;-72
2023/09/13 08:46:40;;;;;;;;;10.40;7.40;;;;;;;;5066823;28;8882;-71
2023/09/13 08:49:08;;;;;;;;;6.60;5.40;;;;;;;;5067905;28;8982;-72
2023/09/13 08:51:36;;;;;;;;;7.00;7.00;;;;;;;;5067113;28;8878;-72
2023/09/13 08:54:05;;;;;;;;;7.00;5.00;;;;;;;;5067665;28;8844;-71
2023/09/13 08:56:32;;;;;;;;;4.80;3.20;;;;;;;;5068361;28;8832;-71
2023/09/13 08:59:01;;;;;;;;;8.00;8.00;;;;;;;;5070241;28;8871;-72
2023/09/13 09:01:29;;;;;;;;;6.40;6.40;;;;;;;;5069390;28;8773;-70
2023/09/13 09:03:58;;;;;;;;;4.40;4.40;;;;;;;;5071280;28;8870;-71
2023/09/13 09:06:25;;;;;;;;;7.80;6.20;;;;;;;;5070675;28;8828;-71
2023/09/13 09:08:53;;;;;;;;;7.60;6.60;;;;;;;;5069423;28;9706;-73
2023/09/13 09:11:23;;;;;;;;;6.00;5.80;;;;;;;;5066702;28;8848;-73
2023/09/13 09:13:50;;;;;;;;;8.80;8.80;;;;;;;;5067222;28;8856;-72
2023/09/13 09:16:19;;;;;;;;;7.60;6.20;;;;;;;;5066258;28;8840;-72
2023/09/13 09:18:47;;;;;;;;;4.60;4.40;;;;;;;;5066854;28;8852;-73
2023/09/13 09:21:17;;;;;;;;;6.20;6.20;;;;;;;;5066902;28;8844;-75
2023/09/13 09:23:44;;;;;;;;;7.20;6.20;;;;;;;;5066834;28;8902;-71
2023/09/13 09:26:12;;;;;;;;;7.00;7.00;;;;;;;;5067305;28;8964;-71
2023/09/13 09:28:39;;;;;;;;;7.80;6.60;;;;;;;;5066289;28;8874;-71
2023/09/13 09:31:10;;;;;;;;;3.20;3.20;;;;;;;;5066405;28;8816;-72
2023/09/13 09:33:38;;;;;;;;;4.80;4.80;;;;;;;;5066449;28;9002;-72
2023/09/13 09:36:06;;;;;;;;;7.20;6.60;;;;;;;;5055483;28;8845;-71
2023/09/13 09:38:37;;;;;;;;;4.00;3.20;;;;;;;;5065997;28;8890;-71
2023/09/13 09:41:06;;;;;;;;;3.00;3.00;;;;;;;;5065937;28;8874;-71
2023/09/13 09:43:33;;;;;;;;;2.00;2.00;;;;;;;;5066654;28;8863;-72
2023/09/13 09:46:01;;;;;;;;;3.00;3.00;;;;;;;;5066851;28;8840;-72
2023/09/13 09:48:28;;;;;;;;;4.20;3.60;;;;;;;;5066815;28;8845;-72
2023/09/13 09:50:56;;;;;;;;;3.60;3.60;;;;;;;;5066966;28;8840;-72
2023/09/13 09:53:25;;;;;;;;;3.80;3.20;;;;;;;;5070649;28;8897;-71
2023/09/13 09:55:53;;;;;;;;;5.00;5.00;;;;;;;;5070859;28;8890;-72
2023/09/13 09:58:22;;;;;;;;;5.00;4.20;;;;;;;;5069496;28;8836;-73
2023/09/13 10:00:51;;;;;;;;;3.20;3.20;;;;;;;;5070426;28;8796;-72
2023/09/13 10:03:19;;;;;;;;;5.00;3.80;;;;;;;;5070105;28;8853;-72
2023/09/13 10:06:02;;;;;;;;;2.80;2.80;;;;;;;;5070752;28;8979;-71
2023/09/13 10:08:43;;;;;;;;;4.60;4.60;;;;;;;;5059511;28;8841;-69
2023/09/13 10:11:13;;;;;;;;;5.40;3.80;;;;;;;;5070439;28;8844;-69
2023/09/13 10:13:41;;;;;;;;;3.80;3.60;;;;;;;;5070085;28;8894;-69
2023/09/13 10:16:11;;;;;;;;;5.20;5.20;;;;;;;;5069981;28;8845;-69
2023/09/13 10:18:40;;;;;;;;;3.40;3.40;;;;;;;;5070193;28;8836;-70
2023/09/13 10:21:07;;;;;;;;;4.80;4.80;;;;;;;;5070178;28;8860;-75
2023/09/13 10:23:40;;;;;;;;;4.80;4.80;;;;;;;;5070335;28;8877;-71
2023/09/13 10:26:10;;;;;;;;;5.20;5.20;;;;;;;;5070110;28;8887;-69
2023/09/13 10:28:40;;;;;;;;;4.80;3.20;;;;;;;;5069849;28;8862;-71
2023/09/13 10:31:12;;;;;;;;;5.20;5.00;;;;;;;;5070032;28;8784;-69
2023/09/13 10:33:41;;;;;;;;;5.00;4.00;;;;;;;;5070813;28;8856;-68
2023/09/13 10:36:09;;;;;;;;;5.40;5.20;;;;;;;;5073041;28;8887;-68
2023/09/13 10:38:42;;;;;;;;;3.80;3.80;;;;;;;;5068434;28;8950;-71
2023/09/13 10:41:13;;;;;;;;;4.20;2.60;;;;;;;;5072942;28;8864;-71
2023/09/13 10:43:42;;;;;;;;;3.60;3.00;;;;;;;;5073674;28;8852;-73
2023/09/13 10:46:09;;;;;;;;;4.20;4.20;;;;;;;;5069466;28;8856;-75
2023/09/13 10:48:38;;;;;;;;;3.20;3.20;;;;;;;;5069219;28;8848;-77
2023/09/13 10:51:05;;;;;;;;;3.00;3.00;;;;;;;;5070201;28;8867;-73
2023/09/13 10:53:33;;;;;;;;;3.60;2.60;;;;;;;;5069207;28;8848;-73
2023/09/13 10:56:02;;;;;;;;;6.20;5.00;;;;;;;;5069723;28;8898;-72
2023/09/13 10:58:30;;;;;;;;;4.00;4.00;;;;;;;;5068764;28;8959;-71
2023/09/13 11:00:58;;;;;;;;;4.60;4.60;;;;;;;;5069503;28;8777;-75
2023/09/13 11:03:26;;;;;;;;;3.00;3.00;;;;;;;;5068175;28;8857;-75
2023/09/13 11:05:56;;;;;;;;;2.40;2.40;;;;;;;;5069429;28;8982;-73
2023/09/13 11:08:29;;;;;;;;;5.80;4.00;;;;;;;;5068121;28;9600;-73
2023/09/13 11:10:57;;;;;;;;;4.00;4.00;;;;;;;;5070115;28;8872;-73
2023/09/13 11:13:31;;;;;;;;;6.00;4.00;;;;;;;;5069664;28;8910;-76
2023/09/13 11:16:03;;;;;;;;;5.00;4.40;;;;;;;;5069684;28;8821;-72
2023/09/13 11:18:31;;;;;;;;;1.00;1.00;;;;;;;;5068785;28;8914;-73
2023/09/13 11:20:59;;;;;;;;;2.60;2.60;;;;;;;;5068698;28;8937;-72
2023/09/13 11:23:26;;;;;;;;;3.00;3.00;;;;;;;;5068365;28;8853;-71
2023/09/13 11:25:54;;;;;;;;;5.00;3.00;;;;;;;;5068322;28;8856;-72
2023/09/13 11:28:33;;;;;;;;;4.60;4.60;;;;;;;;5068524;28;9422;-72
2023/09/13 11:31:08;;;;;;;;;2.00;2.00;;;;;;;;5068165;28;8792;-72
2023/09/13 11:33:40;;;;;;;;;2.40;2.00;;;;;;;;5067858;28;9674;-72
2023/09/13 11:36:08;;;;;;;;;5.40;4.00;;;;;;;;5057211;28;8856;-73
2023/09/13 11:38:36;;;;;;;;;2.20;2.20;;;;;;;;5067988;28;8890;-72
2023/09/13 11:41:04;;;;;;;;;2.40;2.40;;;;;;;;5068651;28;8885;-74
2023/09/13 11:43:31;;;;;;;;;2.60;2.60;;;;;;;;5068624;28;8872;-75
2023/09/13 11:45:59;;;;;;;;;1.00;1.00;;;;;;;;5068597;28;8844;-72
2023/09/13 11:48:32;;;;;;;;;3.60;3.60;;;;;;;;5067617;28;8891;-74
2023/09/13 11:51:11;;;;;;;;;3.60;3.60;;;;;;;;5068974;28;8967;-72
2023/09/13 11:53:38;;;;;;;;;4.80;4.80;;;;;;;;5067690;28;8883;-73
2023/09/13 11:56:05;;;;;;;;;2.20;2.20;;;;;;;;5080027;28;9791;-75
2023/09/13 11:58:34;;;;;;;;;8.40;4.20;;;;;;;;5066049;28;8832;-72
2023/09/13 12:01:03;;;;;;;;;4.20;3.00;;;;;;;;5068261;28;9543;-72
2023/09/13 12:03:32;;;;;;;;;2.80;2.80;;;;;;;;5067918;28;8825;-72
2023/09/13 12:06:00;;;;;;;;;2.40;2.40;;;;;;;;5068623;28;8984;-75
2023/09/13 12:08:29;;;;;;;;;4.00;4.00;;;;;;;;5069836;28;8849;-73
2023/09/13 12:10:57;;;;;;;;;3.20;3.20;;;;;;;;5071154;28;8925;-72
2023/09/13 12:13:44;;;;;;;;;2.60;2.60;;;;;;;;5071622;28;9002;-76
2023/09/13 12:16:11;;;;;;;;;4.60;3.20;;;;;;;;5070339;28;8863;-72
2023/09/13 12:18:40;;;;;;;;;3.20;3.20;;;;;;;;5071205;28;8882;-75
2023/09/13 12:21:09;;;;;;;;;3.20;3.20;;;;;;;;5069038;28;9638;-73
2023/09/13 12:23:36;;;;;;;;;2.80;2.80;;;;;;;;5067281;28;8856;-72
2023/09/13 12:26:06;;;;;;;;;2.40;2.40;;;;;;;;5066659;28;8894;-73
2023/09/13 12:28:34;;;;;;;;;2.20;2.20;;;;;;;;5068099;28;8809;-75
2023/09/13 12:31:06;;;;;;;;;3.60;2.60;;;;;;;;5068750;28;8900;-75
2023/09/13 12:33:34;;;;;;;;;2.60;2.60;;;;;;;;5069578;28;8868;-77
2023/09/13 12:36:02;;;;;;;;;2.80;2.80;;;;;;;;5070625;28;8963;-86
2023/09/13 12:38:33;;;;;;;;;0.20;0.20;;;;;;;;5067802;28;8852;-71
2023/09/13 12:41:00;;;;;;;;;4.60;3.20;;;;;;;;5068553;28;9045;-72
2023/09/13 12:43:29;;;;;;;;;2.80;2.80;;;;;;;;5067221;28;8844;-72
2023/09/13 12:45:56;;;;;;;;;2.80;1.40;;;;;;;;5067793;28;8868;-78
2023/09/13 12:48:25;;;;;;;;;3.00;3.00;;;;;;;;5067198;28;8862;-74
2023/09/13 12:50:52;;;;;;;;;3.60;3.60;;;;;;;;5068453;28;8860;-72
2023/09/13 12:53:21;;;;;;;;;2.00;2.00;;;;;;;;5066963;28;8836;-72
2023/09/13 12:55:49;;;;;;;;;3.20;3.20;;;;;;;;5067718;28;8840;-71
2023/09/13 12:58:16;;;;;;;;;3.60;3.60;;;;;;;;5066600;28;8868;-71
2023/09/13 13:00:51;;;;;;;;;2.40;2.40;;;;;;;;5067261;28;8768;-76
2023/09/13 13:03:18;;;;;;;;;2.80;2.80;;;;;;;;5066555;28;8880;-72
2023/09/13 13:05:46;;;;;;;;;1.20;1.20;;;;;;;;5067270;28;8884;-72
2023/09/13 13:08:14;;;;;;;;;3.40;2.20;;;;;;;;5067369;28;8869;-72
2023/09/13 13:10:59;;;;;;;;;4.00;4.00;;;;;;;;5067724;28;8836;-72
2023/09/13 13:13:33;;;;;;;;;2.20;2.20;;;;;;;;5056606;28;8876;-72
2023/09/13 13:16:03;;;;;;;;;2.40;2.40;;;;;;;;5066935;28;8841;-72
2023/09/13 13:18:31;;;;;;;;;0.40;0.40;;;;;;;;5067546;28;8844;-72
2023/09/13 13:20:58;;;;;;;;;3.00;3.00;;;;;;;;5063596;28;8871;-73
2023/09/13 13:23:25;;;;;;;;;4.00;4.00;;;;;;;;5058066;28;8883;-72
2023/09/13 13:25:52;;;;;;;;;3.40;3.40;;;;;;;;5067201;28;8833;-71
2023/09/13 13:28:21;;;;;;;;;2.80;2.80;;;;;;;;5070951;28;8852;-73
2023/09/13 13:30:56;;;;;;;;;5.20;5.20;;;;;;;;5070363;28;8808;-72
2023/09/13 13:33:23;;;;;;;;;4.40;3.40;;;;;;;;5070920;28;8840;-71
2023/09/13 13:35:52;;;;;;;;;2.40;2.00;;;;;;;;5070218;28;8836;-72
2023/09/13 13:38:19;;;;;;;;;4.20;4.20;;;;;;;;5070580;28;9647;-73
2023/09/13 13:40:46;;;;;;;;;6.80;6.80;;;;;;;;5069907;28;8852;-71
2023/09/13 13:43:13;;;;;;;;;6.00;4.00;;;;;;;;5071413;28;8856;-72
2023/09/13 13:45:42;;;;;;;;;4.00;4.00;;;;;;;;5071741;28;8888;-72
2023/09/13 13:48:09;;;;;;;;;4.40;2.80;;;;;;;;5073522;28;8862;-71
2023/09/13 13:50:36;;;;;;;;;4.00;4.00;;;;;;;;5074245;28;8915;-72
2023/09/13 13:53:04;;;;;;;;;2.60;2.60;;;;;;;;5074231;28;8864;-72
2023/09/13 13:55:31;;;;;;;;;2.80;2.00;;;;;;;;5062497;28;8945;-74
2023/09/13 13:57:58;;;;;;;;;3.00;2.00;;;;;;;;5070021;28;9575;-73
2023/09/13 14:00:26;;;;;;;;;2.00;2.00;;;;;;;;5069973;28;8772;-73
2023/09/13 14:02:55;;;;;;;;;2.00;2.00;;;;;;;;5070405;28;8848;-74
2023/09/13 14:05:22;;;;;;;;;2.60;2.60;;;;;;;;5070923;28;8849;-74
2023/09/13 14:07:50;;;;;;;;;1.80;1.80;;;;;;;;5069703;28;8975;-73
2023/09/13 14:10:17;;;;;;;;;1.80;1.80;;;;;;;;5070266;28;8894;-78
2023/09/13 14:12:44;;;;;;;;;1.20;1.20;;;;;;;;5069721;28;8898;-74
2023/09/13 14:15:11;;;;;;;;;4.80;4.00;;;;;;;;5070540;28;8902;-79
2023/09/13 14:17:39;;;;;;;;;3.20;3.20;;;;;;;;5069318;28;8882;-71
2023/09/13 14:20:10;;;;;;;;;6.00;3.00;;;;;;;;5070358;28;8874;-71
2023/09/13 14:22:37;;;;;;;;;3.60;3.60;;;;;;;;5069574;28;8893;-72
2023/09/13 14:25:05;;;;;;;;;2.00;2.00;;;;;;;;5070211;28;8844;-72
2023/09/13 14:27:34;;;;;;;;;3.00;3.00;;;;;;;;5069464;28;9621;-72
2023/09/13 14:30:02;;;;;;;;;1.20;1.20;;;;;;;;5070663;28;8867;-72
2023/09/13 14:32:29;;;;;;;;;2.00;2.00;;;;;;;;5069366;28;8785;-72
2023/09/13 14:34:59;;;;;;;;;1.40;1.40;;;;;;;;5069818;28;8844;-72
2023/09/13 14:37:28;;;;;;;;;1.00;1.00;;;;;;;;5067946;28;8844;-72
2023/09/13 14:39:55;;;;;;;;;1.00;1.00;;;;;;;;5069662;28;8852;-73
2023/09/13 14:42:22;;;;;;;;;1.40;1.40;;;;;;;;5069160;28;8870;-73
2023/09/13 14:44:50;;;;;;;;;1.00;1.00;;;;;;;;5069586;28;8852;-72
2023/09/13 14:47:17;;;;;;;;;1.20;1.20;;;;;;;;5069106;28;9611;-73
2023/09/13 14:49:44;;;;;;;;;0.80;0.80;;;;;;;;5069297;28;8859;-73
2023/09/13 14:52:12;;;;;;;;;2.20;1.00;;;;;;;;5076175;28;8949;-72
2023/09/13 14:54:41;;;;;;;;;0.80;0.80;;;;;;;;5074365;28;8857;-72
2023/09/13 14:57:08;;;;;;;;;1.80;1.80;;;;;;;;5069703;28;9094;-74
2023/09/13 14:59:35;;;;;;;;;1.20;1.20;;;;;;;;5069007;28;8829;-73
2023/09/13 15:02:04;;;;;;;;;1.00;1.00;;;;;;;;5069215;28;8805;-72